EBAW

EBAW 261550Z 24008KT 190V260 9999 FEW021 05/02 Q1018 NOSIG

TAF TAF EBAW 232300Z 2400/2412 25011KT 9999 SCT030

EHWO

EHWO 261555Z AUTO 23008KT 9999 OVC110 05/02 Q1018 BLU

TAF EHWO 251343Z 2514/2602 25005KT 9999 SCT030 BECMG 2517/2519 28012KT SCT015 BKN020 TEMPO 2520/2602 28015G30KT 3000 RA SHRASN SCT005 SCT008 SCT012CB PROB30 TEMPO 2520/2602 2000 TSRASN

EBBL

EBBL 261455Z 25012KT 9999 SCT028 BKN230 05/M00 Q1018 BLU BLU

TAF EBBL 251541Z 2519/2607 24010G20KT 9999 SCT020 TEMPO 2519/2524 FEW025 PROB30 TEMPO 2522/2607 25010G25KT 4000 BR -RASN SCT008 BKN012 BECMG 2605/2607 25010G20KT 9999 BKN010

Always consult the official METAR resources.